createdAt,value
2018-03-15T00:02:14.471Z,1.50
2018-03-15T00:04:42.219Z,1.40
2018-03-15T00:07:10.641Z,1.30
2018-03-15T00:09:38.316Z,1.30
2018-03-15T00:12:05.960Z,1.30
2018-03-15T00:14:34.520Z,1.30
2018-03-15T00:17:02.906Z,1.30
2018-03-15T00:19:30.623Z,1.30
2018-03-15T00:21:58.273Z,1.30
2018-03-15T00:24:25.958Z,1.30
2018-03-15T00:26:53.644Z,1.30
2018-03-15T00:29:22.068Z,1.20
2018-03-15T00:31:49.706Z,1.20
2018-03-15T00:34:17.361Z,1.10
2018-03-15T00:36:45.085Z,1.10
2018-03-15T00:39:12.825Z,1.10
2018-03-15T00:41:40.486Z,1.00
2018-03-15T00:44:08.564Z,1.00
2018-03-15T00:46:36.439Z,1.00
2018-03-15T00:49:04.064Z,1.00
2018-03-15T00:51:31.781Z,1.00
2018-03-15T00:53:59.473Z,1.00
2018-03-15T00:56:27.186Z,0.90
2018-03-15T00:58:54.966Z,1.00
2018-03-15T01:01:23.072Z,0.90
2018-03-15T01:03:50.676Z,1.00
2018-03-15T01:06:18.294Z,1.10
2018-03-15T01:08:46.014Z,1.10
2018-03-15T01:11:13.692Z,1.10
2018-03-15T01:13:42.358Z,1.10
2018-03-15T01:16:10.017Z,1.10
2018-03-15T01:18:37.683Z,1.10
2018-03-15T01:21:05.430Z,1.00
2018-03-15T01:23:33.213Z,1.00
2018-03-15T01:26:01.918Z,0.90
2018-03-15T01:28:30.353Z,0.80
2018-03-15T01:30:58.124Z,0.80
2018-03-15T01:33:25.893Z,0.80
2018-03-15T01:35:53.636Z,0.80
2018-03-15T01:38:21.336Z,0.70
2018-03-15T01:40:48.985Z,0.70
2018-03-15T01:43:16.704Z,0.60
2018-03-15T01:45:44.322Z,0.60
2018-03-15T01:48:12.904Z,0.60
2018-03-15T01:50:40.521Z,0.60
2018-03-15T01:53:08.302Z,0.60
2018-03-15T01:55:36.036Z,0.60
2018-03-15T01:58:03.930Z,0.60
2018-03-15T02:00:31.717Z,0.60
2018-03-15T02:02:59.353Z,0.60
2018-03-15T02:05:27.129Z,0.60
2018-03-15T02:07:54.954Z,0.60
2018-03-15T02:10:22.597Z,0.60
2018-03-15T02:12:50.216Z,0.60
2018-03-15T02:15:17.878Z,0.60
2018-03-15T02:17:46.426Z,0.70
2018-03-15T02:20:14.054Z,0.70
2018-03-15T02:22:42.597Z,0.70
2018-03-15T02:25:10.266Z,0.70
2018-03-15T02:27:37.956Z,0.70
2018-03-15T02:30:06.374Z,0.70
2018-03-15T02:32:34.156Z,0.70
2018-03-15T02:35:01.796Z,0.70
2018-03-15T02:37:29.650Z,0.70
2018-03-15T02:39:57.382Z,0.70
2018-03-15T02:42:25.773Z,0.70
2018-03-15T02:44:54.170Z,0.70
2018-03-15T02:47:21.958Z,0.70
2018-03-15T02:49:49.574Z,0.70
2018-03-15T02:52:18.471Z,0.70
2018-03-15T02:54:46.106Z,0.60
2018-03-15T02:57:14.202Z,0.70
2018-03-15T02:59:42.600Z,0.60
2018-03-15T03:02:10.428Z,0.60
2018-03-15T03:04:39.004Z,0.70
2018-03-15T03:07:07.407Z,0.70
2018-03-15T03:09:35.091Z,0.70
2018-03-15T03:12:02.756Z,0.70
2018-03-15T03:14:30.392Z,0.60
2018-03-15T03:16:58.909Z,0.70
2018-03-15T03:19:26.567Z,0.60
2018-03-15T03:21:54.207Z,0.60
2018-03-15T03:24:21.870Z,0.60
2018-03-15T03:26:50.966Z,0.60
2018-03-15T03:29:18.691Z,0.70
2018-03-15T03:31:46.448Z,0.60
2018-03-15T03:34:14.085Z,0.70
2018-03-15T03:36:42.547Z,0.70
2018-03-15T03:39:10.362Z,0.70
2018-03-15T03:41:38.984Z,0.80
2018-03-15T03:44:06.681Z,0.80
2018-03-15T03:46:34.320Z,0.80
2018-03-15T03:49:02.024Z,0.80
2018-03-15T03:51:29.672Z,0.90
2018-03-15T03:53:57.330Z,0.90
2018-03-15T03:56:25.053Z,1.00
2018-03-15T03:58:53.082Z,1.00
2018-03-15T04:01:20.733Z,1.10
2018-03-15T04:03:48.379Z,1.10
2018-03-15T04:06:16.154Z,1.20
2018-03-15T04:08:43.863Z,1.30
2018-03-15T04:11:11.657Z,1.30
2018-03-15T04:13:39.386Z,1.30
2018-03-15T04:16:07.110Z,1.40
2018-03-15T04:18:34.806Z,1.40
2018-03-15T04:21:03.206Z,1.50
2018-03-15T04:23:30.888Z,1.40
2018-03-15T04:25:59.023Z,1.50
2018-03-15T04:28:26.654Z,1.50
2018-03-15T04:30:54.322Z,1.50
2018-03-15T04:33:21.946Z,1.60
2018-03-15T04:35:49.642Z,1.60
2018-03-15T04:38:17.281Z,1.50
2018-03-15T04:40:44.895Z,1.50
2018-03-15T04:43:12.568Z,1.60
2018-03-15T04:45:40.276Z,1.60
2018-03-15T04:48:07.934Z,1.60
2018-03-15T04:50:35.645Z,1.70
2018-03-15T04:53:03.300Z,1.70
2018-03-15T04:55:31.063Z,1.70
2018-03-15T04:57:59.824Z,1.70
2018-03-15T05:00:27.587Z,1.70
2018-03-15T05:02:55.193Z,1.70
2018-03-15T05:05:23.238Z,1.70
2018-03-15T05:07:51.639Z,1.70
2018-03-15T05:10:19.408Z,1.70
2018-03-15T05:12:47.071Z,1.70
2018-03-15T05:15:14.687Z,1.70
2018-03-15T05:17:42.382Z,1.70
2018-03-15T05:20:10.438Z,1.70
2018-03-15T05:22:38.269Z,1.70
2018-03-15T05:25:06.752Z,1.70
2018-03-15T05:27:34.445Z,1.70
2018-03-15T05:30:03.401Z,1.80
2018-03-15T05:32:31.039Z,1.80
2018-03-15T05:34:58.819Z,1.80
2018-03-15T05:37:26.554Z,1.80
2018-03-15T05:39:54.262Z,1.90
2018-03-15T05:42:21.969Z,1.90
2018-03-15T05:44:49.678Z,1.90
2018-03-15T05:47:17.361Z,1.90
2018-03-15T05:49:46.228Z,2.00
2018-03-15T05:52:14.041Z,2.00
2018-03-15T05:54:41.691Z,2.10
2018-03-15T05:57:10.195Z,2.20
2018-03-15T05:59:37.870Z,2.20
2018-03-15T06:02:05.529Z,2.30
2018-03-15T06:04:33.328Z,2.40
2018-03-15T06:07:01.027Z,2.40
2018-03-15T06:09:28.682Z,2.40
2018-03-15T06:11:57.270Z,2.50
2018-03-15T06:14:25.878Z,2.60
2018-03-15T06:16:54.561Z,2.50
2018-03-15T06:19:22.361Z,2.60
2018-03-15T06:21:50.099Z,2.70
2018-03-15T06:24:17.804Z,2.70
2018-03-15T06:26:45.457Z,2.90
2018-03-15T06:29:13.281Z,2.90
2018-03-15T06:31:40.941Z,3.00
2018-03-15T06:34:08.712Z,2.90
2018-03-15T06:36:36.486Z,3.00
2018-03-15T06:39:04.150Z,3.00
2018-03-15T06:41:31.839Z,3.00
2018-03-15T06:43:59.489Z,3.10
2018-03-15T06:46:27.180Z,3.10
2018-03-15T06:48:55.730Z,3.10
2018-03-15T06:51:23.888Z,3.10
2018-03-15T06:53:51.532Z,3.20
2018-03-15T06:56:19.402Z,3.20
2018-03-15T06:58:47.065Z,3.40
2018-03-15T07:01:14.762Z,3.60
2018-03-15T07:03:42.420Z,3.60
2018-03-15T07:06:11.125Z,3.80
2018-03-15T07:08:38.905Z,3.60
2018-03-15T07:11:06.793Z,3.80
2018-03-15T07:13:34.485Z,3.90
2018-03-15T07:16:02.232Z,4.00
2018-03-15T07:18:29.955Z,4.20
2018-03-15T07:20:57.672Z,4.30
2018-03-15T07:23:25.402Z,4.50
2018-03-15T07:25:53.100Z,4.50
2018-03-15T07:28:20.843Z,4.40
2018-03-15T07:30:48.463Z,4.60
2018-03-15T07:33:16.928Z,4.90
2018-03-15T07:35:44.589Z,4.90
2018-03-15T07:38:12.361Z,5.20
2018-03-15T07:40:40.058Z,4.90
2018-03-15T07:43:07.678Z,5.00
2018-03-15T07:45:35.312Z,5.00
2018-03-15T07:48:03.012Z,5.30
2018-03-15T07:50:30.741Z,5.40
2018-03-15T07:52:58.497Z,5.30
2018-03-15T07:55:26.158Z,5.50
2018-03-15T07:57:53.959Z,5.30
2018-03-15T08:00:21.592Z,5.70
2018-03-15T08:02:49.332Z,6.30
2018-03-15T08:05:20.217Z,6.50
2018-03-15T08:07:47.962Z,6.80
2018-03-15T08:10:15.648Z,6.60
2018-03-15T08:12:43.808Z,6.80
2018-03-15T08:15:11.911Z,7.10
2018-03-15T08:17:40.345Z,8.20
2018-03-15T08:20:08.959Z,8.10
2018-03-15T08:22:36.612Z,8.00
2018-03-15T08:25:04.319Z,8.00
2018-03-15T08:27:31.981Z,8.20
2018-03-15T08:29:59.732Z,8.30
2018-03-15T08:32:28.111Z,9.00
2018-03-15T08:34:55.900Z,8.90
2018-03-15T08:37:23.635Z,9.00
2018-03-15T08:39:51.286Z,7.80
2018-03-15T08:42:19.743Z,7.90
2018-03-15T08:44:47.493Z,7.90
2018-03-15T08:47:15.174Z,7.60
2018-03-15T08:49:42.822Z,7.30
2018-03-15T08:52:10.446Z,7.30
2018-03-15T08:54:38.027Z,7.20
2018-03-15T08:57:05.707Z,7.60
2018-03-15T08:59:33.359Z,7.70
2018-03-15T09:02:01.039Z,7.40
2018-03-15T09:04:29.717Z,7.60
2018-03-15T09:06:58.027Z,8.10
2018-03-15T09:09:25.862Z,8.10
2018-03-15T09:11:54.293Z,9.70
2018-03-15T09:14:22.073Z,9.70
2018-03-15T09:16:49.733Z,10.70
2018-03-15T09:19:17.407Z,10.90
2018-03-15T09:21:45.066Z,10.30
2018-03-15T09:24:12.875Z,9.70
2018-03-15T09:26:40.599Z,9.40
2018-03-15T09:29:08.326Z,9.20
2018-03-15T09:31:36.287Z,9.70
2018-03-15T09:34:03.969Z,9.60
2018-03-15T09:36:31.944Z,10.00
2018-03-15T09:38:59.629Z,10.20
2018-03-15T09:41:27.413Z,9.90
2018-03-15T09:43:55.157Z,9.80
2018-03-15T09:46:23.042Z,9.90
2018-03-15T09:48:50.794Z,10.00
2018-03-15T09:51:19.230Z,9.90
2018-03-15T09:53:47.045Z,9.90
2018-03-15T09:56:15.591Z,10.20
2018-03-15T09:58:43.318Z,10.20
2018-03-15T10:01:10.992Z,9.90
2018-03-15T10:03:39.118Z,9.60
2018-03-15T10:06:07.759Z,9.40
2018-03-15T10:08:35.387Z,9.40
2018-03-15T10:11:03.638Z,9.50
2018-03-15T10:13:32.058Z,9.70
2018-03-15T10:15:59.836Z,9.70
2018-03-15T10:18:27.578Z,9.70
2018-03-15T10:20:55.280Z,10.10
2018-03-15T10:23:22.913Z,9.80
2018-03-15T10:25:50.636Z,10.50
2018-03-15T10:28:19.070Z,12.00
2018-03-15T10:30:46.824Z,12.00
2018-03-15T10:33:20.531Z,12.80
2018-03-15T10:35:48.211Z,12.90
2018-03-15T10:38:15.906Z,12.80
2018-03-15T10:40:43.601Z,12.50
2018-03-15T10:43:11.317Z,12.90
2018-03-15T10:45:39.070Z,13.50
2018-03-15T10:48:06.933Z,13.80
2018-03-15T10:50:34.623Z,13.50
2018-03-15T10:53:03.053Z,13.30
2018-03-15T10:55:30.938Z,13.30
2018-03-15T10:57:58.615Z,12.50
2018-03-15T11:00:32.104Z,13.20
2018-03-15T11:02:59.763Z,12.70
2018-03-15T11:05:33.033Z,13.10
2018-03-15T11:08:06.399Z,13.00
2018-03-15T11:10:34.034Z,13.20
2018-03-15T11:13:02.672Z,12.90
2018-03-15T11:15:30.389Z,12.90
2018-03-15T11:17:58.223Z,13.00
2018-03-15T11:20:25.906Z,13.80
2018-03-15T11:22:54.610Z,14.10
2018-03-15T11:25:22.316Z,14.10
2018-03-15T11:27:50.211Z,13.90
2018-03-15T11:30:17.881Z,14.20
2018-03-15T11:32:46.399Z,13.30
2018-03-15T11:35:14.081Z,13.30
2018-03-15T11:37:41.820Z,13.20
2018-03-15T11:40:09.696Z,13.40
2018-03-15T11:42:37.440Z,13.60
2018-03-15T11:45:05.192Z,13.80
2018-03-15T11:47:33.704Z,15.00
2018-03-15T11:50:01.469Z,15.00
2018-03-15T11:52:29.302Z,16.50
2018-03-15T11:54:57.006Z,14.40
2018-03-15T11:57:24.818Z,13.80
2018-03-15T11:59:52.620Z,14.00
2018-03-15T12:02:20.328Z,15.10
2018-03-15T12:04:48.095Z,15.50
2018-03-15T12:07:16.232Z,15.40
2018-03-15T12:09:44.057Z,13.20
2018-03-15T12:12:11.737Z,13.10
2018-03-15T12:14:39.505Z,13.70
2018-03-15T12:17:07.853Z,14.30
2018-03-15T12:19:35.613Z,14.00
2018-03-15T12:22:03.376Z,13.90
2018-03-15T12:24:31.841Z,14.80
2018-03-15T12:26:59.930Z,14.80
2018-03-15T12:29:27.751Z,13.90
2018-03-15T12:31:55.408Z,14.80
2018-03-15T12:34:23.218Z,15.40
2018-03-15T12:36:51.664Z,18.20
2018-03-15T12:39:19.320Z,18.20
2018-03-15T12:41:47.019Z,17.80
2018-03-15T12:44:15.624Z,16.50
2018-03-15T12:46:44.327Z,16.40
2018-03-15T12:49:12.979Z,16.60
2018-03-15T12:51:41.488Z,14.60
2018-03-15T12:54:09.489Z,14.60
2018-03-15T12:56:37.190Z,13.70
2018-03-15T12:59:05.083Z,14.00
2018-03-15T13:01:32.774Z,15.10
2018-03-15T13:04:00.561Z,15.60
2018-03-15T13:06:28.230Z,15.00
2018-03-15T13:08:55.882Z,13.80
2018-03-15T13:11:23.647Z,13.30
2018-03-15T13:13:51.296Z,12.10
2018-03-15T13:16:19.071Z,12.20
2018-03-15T13:18:46.744Z,12.30
2018-03-15T13:21:14.427Z,12.10
2018-03-15T13:23:42.118Z,11.90
2018-03-15T13:26:09.805Z,11.90
2018-03-15T13:28:37.771Z,11.90
2018-03-15T13:31:05.506Z,11.80
2018-03-15T13:33:33.322Z,11.70
2018-03-15T13:36:01.023Z,11.60
2018-03-15T13:38:29.426Z,11.50
2018-03-15T13:40:57.089Z,11.50
2018-03-15T13:43:24.776Z,11.40
2018-03-15T13:45:52.498Z,11.40
2018-03-15T13:48:20.277Z,11.50
2018-03-15T13:50:47.974Z,11.60
2018-03-15T13:53:15.748Z,11.70
2018-03-15T13:55:45.078Z,11.70
2018-03-15T13:58:12.743Z,11.70
2018-03-15T14:00:41.273Z,11.60
2018-03-15T14:03:08.969Z,11.50
2018-03-15T14:05:38.045Z,11.60
2018-03-15T14:08:05.746Z,11.60
2018-03-15T14:10:33.675Z,11.60
2018-03-15T14:13:01.417Z,11.60
2018-03-15T14:15:29.137Z,11.60
2018-03-15T14:17:56.822Z,11.60
2018-03-15T14:20:25.880Z,11.70
2018-03-15T14:22:53.656Z,11.80
2018-03-15T14:25:21.378Z,11.90
2018-03-15T14:27:49.056Z,12.00
2018-03-15T14:30:17.723Z,12.00
2018-03-15T14:32:45.469Z,11.80
2018-03-15T14:35:13.198Z,11.80
2018-03-15T14:37:41.362Z,11.60
2018-03-15T14:40:11.473Z,11.60
2018-03-15T14:42:39.880Z,11.50
2018-03-15T14:45:07.520Z,11.50
2018-03-15T14:47:36.823Z,11.40
2018-03-15T14:50:05.241Z,11.40
2018-03-15T14:52:32.894Z,11.40
2018-03-15T14:55:01.709Z,11.50
2018-03-15T14:57:29.368Z,11.30
2018-03-15T14:59:57.035Z,11.10
2018-03-15T15:02:24.771Z,11.20
2018-03-15T15:04:52.379Z,11.30
2018-03-15T15:07:20.296Z,11.20
2018-03-15T15:09:47.994Z,11.20
2018-03-15T15:12:15.714Z,11.10
2018-03-15T15:14:44.269Z,11.10
2018-03-15T15:17:12.915Z,11.00
2018-03-15T15:19:40.603Z,11.00
2018-03-15T15:22:09.636Z,11.00
2018-03-15T15:24:41.563Z,10.80
2018-03-15T15:27:09.265Z,10.90
2018-03-15T15:29:37.284Z,10.90
2018-03-15T15:32:04.904Z,10.80
2018-03-15T15:34:32.668Z,10.70
2018-03-15T15:37:00.386Z,10.60
2018-03-15T15:39:28.048Z,10.60
2018-03-15T15:41:56.628Z,10.50
2018-03-15T15:44:24.282Z,10.50
2018-03-15T15:46:51.974Z,10.50
2018-03-15T15:49:19.653Z,10.40
2018-03-15T15:51:47.521Z,10.40
2018-03-15T15:54:16.413Z,10.30
2018-03-15T15:56:44.225Z,10.20
2018-03-15T15:59:11.868Z,10.20
2018-03-15T16:01:39.578Z,10.20
2018-03-15T16:04:07.729Z,10.20
2018-03-15T16:06:35.524Z,10.10
2018-03-15T16:09:03.268Z,10.10
2018-03-15T16:11:30.988Z,10.10
2018-03-15T16:13:59.360Z,10.10
2018-03-15T16:16:27.769Z,10.10
2018-03-15T16:18:56.247Z,10.00
2018-03-15T16:21:24.010Z,10.00
2018-03-15T16:23:52.214Z,10.00
2018-03-15T16:26:20.156Z,9.90
2018-03-15T16:28:47.873Z,9.90
2018-03-15T16:31:15.545Z,9.90
2018-03-15T16:33:43.358Z,9.80
2018-03-15T16:36:11.166Z,9.80
2018-03-15T16:38:38.928Z,9.80
2018-03-15T16:41:06.683Z,9.70
2018-03-15T16:43:34.415Z,9.70
2018-03-15T16:46:02.166Z,9.70
2018-03-15T16:48:29.850Z,9.60
2018-03-15T16:50:58.326Z,9.60
2018-03-15T16:53:26.048Z,9.50
2018-03-15T16:55:53.755Z,9.50
2018-03-15T17:00:56.477Z,9.40
2018-03-15T17:03:24.245Z,9.30
2018-03-15T17:05:52.061Z,9.30
2018-03-15T17:08:19.755Z,9.20
2018-03-15T17:10:47.706Z,9.20
2018-03-15T17:13:15.373Z,9.20
2018-03-15T17:15:43.868Z,9.10
2018-03-15T17:18:11.544Z,9.10
2018-03-15T17:20:39.353Z,9.00
2018-03-15T17:23:07.054Z,9.00
2018-03-15T17:25:36.140Z,8.90
2018-03-15T17:28:04.703Z,8.80
2018-03-15T17:30:32.387Z,8.80
2018-03-15T17:33:00.373Z,8.80
2018-03-15T17:35:28.201Z,8.80
2018-03-15T17:37:56.213Z,8.70
2018-03-15T17:40:23.997Z,8.70
2018-03-15T17:42:51.672Z,8.70
2018-03-15T17:45:20.330Z,8.70
2018-03-15T17:47:48.202Z,8.70
2018-03-15T17:50:16.088Z,8.60
2018-03-15T17:52:43.817Z,8.60
2018-03-15T17:55:11.606Z,8.60
2018-03-15T17:57:39.369Z,8.60
2018-03-15T18:00:10.737Z,8.60
2018-03-15T18:02:38.480Z,8.60
2018-03-15T18:05:06.989Z,8.50
2018-03-15T18:07:35.182Z,8.60
2018-03-15T18:10:03.767Z,8.50
2018-03-15T18:12:32.280Z,8.50
2018-03-15T18:15:00.195Z,8.50
2018-03-15T18:17:27.936Z,8.50
2018-03-15T18:19:55.994Z,8.50
2018-03-15T18:22:23.757Z,8.40
2018-03-15T18:24:51.454Z,8.50
2018-03-15T18:27:19.202Z,8.40
2018-03-15T18:29:47.022Z,8.40
2018-03-15T18:32:14.750Z,8.40
2018-03-15T18:34:42.549Z,8.40
2018-03-15T18:37:10.273Z,8.40
2018-03-15T18:39:38.172Z,8.30
2018-03-15T18:42:07.560Z,8.30
2018-03-15T18:44:35.236Z,8.30
2018-03-15T18:47:04.554Z,8.30
2018-03-15T18:49:33.937Z,8.30
2018-03-15T18:52:02.560Z,8.20
2018-03-15T18:54:31.143Z,8.20
2018-03-15T18:56:59.013Z,8.20
2018-03-15T18:59:27.231Z,8.20
2018-03-15T19:01:56.072Z,8.20
2018-03-15T19:04:24.724Z,8.10
2018-03-15T19:06:52.776Z,8.10
2018-03-15T19:09:20.600Z,8.10
2018-03-15T19:11:48.543Z,8.10
2018-03-15T19:14:16.295Z,8.00
2018-03-15T19:16:43.998Z,8.00
2018-03-15T19:19:11.790Z,8.00
2018-03-15T19:21:39.472Z,8.00
2018-03-15T19:24:08.207Z,7.90
2018-03-15T19:26:35.974Z,7.90
2018-03-15T19:29:04.021Z,7.90
2018-03-15T19:31:31.748Z,7.90
2018-03-15T19:34:00.296Z,7.90
2018-03-15T19:36:28.206Z,7.90
2018-03-15T19:38:56.725Z,7.80
2018-03-15T19:41:24.614Z,7.80
2018-03-15T19:43:52.554Z,7.90
2018-03-15T19:46:21.161Z,7.90
2018-03-15T19:48:48.801Z,7.90
2018-03-15T19:51:16.755Z,7.80
2018-03-15T19:53:44.522Z,7.80
2018-03-15T19:56:12.225Z,7.80
2018-03-15T19:58:40.218Z,7.80
2018-03-15T20:01:08.087Z,7.70
2018-03-15T20:03:36.065Z,7.70
2018-03-15T20:06:03.976Z,7.70
2018-03-15T20:08:31.856Z,7.70
2018-03-15T20:10:59.636Z,7.70
2018-03-15T20:13:27.296Z,7.70
2018-03-15T20:15:56.679Z,7.60
2018-03-15T20:18:24.379Z,7.60
2018-03-15T20:20:52.952Z,7.60
2018-03-15T20:23:26.495Z,7.60
2018-03-15T20:25:54.309Z,7.60
2018-03-15T20:28:27.542Z,7.60
2018-03-15T20:30:55.413Z,7.60
2018-03-15T20:33:28.805Z,7.60
2018-03-15T20:35:56.672Z,7.50
2018-03-15T20:38:24.392Z,7.50
2018-03-15T20:40:57.759Z,7.50
2018-03-15T20:43:25.575Z,7.50
2018-03-15T20:45:59.590Z,7.50
2018-03-15T20:48:33.021Z,7.40
2018-03-15T20:51:01.772Z,7.40
2018-03-15T20:53:29.538Z,7.40
2018-03-15T20:55:58.152Z,7.40
2018-03-15T20:58:25.851Z,7.40
2018-03-15T21:00:53.563Z,7.40
2018-03-15T21:03:22.140Z,7.40
2018-03-15T21:05:50.550Z,7.40
2018-03-15T21:08:18.195Z,7.30
2018-03-15T21:10:45.888Z,7.30
2018-03-15T21:13:13.587Z,7.40
2018-03-15T21:15:41.369Z,7.30
2018-03-15T21:18:09.296Z,7.30
2018-03-15T21:20:37.059Z,7.30
2018-03-15T21:23:04.889Z,7.30
2018-03-15T21:25:32.596Z,7.30
2018-03-15T21:28:00.393Z,7.30
2018-03-15T21:30:28.389Z,7.30
2018-03-15T21:32:56.089Z,7.30
2018-03-15T21:35:23.803Z,7.30
2018-03-15T21:37:51.440Z,7.30
2018-03-15T21:40:19.266Z,7.30
2018-03-15T21:42:47.014Z,7.30
2018-03-15T21:45:14.641Z,7.30
2018-03-15T21:47:42.349Z,7.20
2018-03-15T21:50:10.216Z,7.30
2018-03-15T21:52:38.017Z,7.30
2018-03-15T21:55:06.648Z,7.30
2018-03-15T21:57:34.591Z,7.20
2018-03-15T22:00:02.489Z,7.30
2018-03-15T22:02:30.202Z,7.20
2018-03-15T22:04:58.699Z,7.20
2018-03-15T22:07:26.444Z,7.10
2018-03-15T22:09:54.913Z,7.20
2018-03-15T22:12:22.685Z,7.10
2018-03-15T22:14:50.426Z,7.20
2018-03-15T22:17:18.029Z,7.20
2018-03-15T22:19:45.784Z,7.30
2018-03-15T22:22:13.687Z,7.20
2018-03-15T22:24:41.458Z,7.30
2018-03-15T22:27:09.365Z,7.20
2018-03-15T22:29:37.096Z,7.20
2018-03-15T22:32:05.261Z,7.20
2018-03-15T22:34:33.527Z,7.20
2018-03-15T22:37:01.607Z,7.20
2018-03-15T22:39:29.551Z,7.20
2018-03-15T22:41:57.231Z,7.20
2018-03-15T22:44:24.875Z,7.20
2018-03-15T22:46:52.593Z,7.20
2018-03-15T22:49:20.514Z,7.10
2018-03-15T22:51:48.146Z,7.10
2018-03-15T22:54:15.910Z,7.10
2018-03-15T22:56:43.648Z,7.10
2018-03-15T22:59:11.306Z,7.10
2018-03-15T23:01:38.908Z,7.10
2018-03-15T23:04:06.820Z,7.10
2018-03-15T23:06:34.596Z,7.10
2018-03-15T23:09:02.499Z,7.00
2018-03-15T23:11:30.228Z,7.10
2018-03-15T23:13:58.655Z,7.00
2018-03-15T23:16:26.737Z,7.00
2018-03-15T23:18:54.454Z,7.00
2018-03-15T23:21:22.930Z,7.00
2018-03-15T23:23:51.593Z,7.00
2018-03-15T23:26:19.726Z,7.00
2018-03-15T23:28:48.211Z,7.00
2018-03-15T23:31:16.227Z,7.00
2018-03-15T23:33:43.965Z,7.00
2018-03-15T23:36:11.870Z,7.10
2018-03-15T23:38:40.451Z,7.10
2018-03-15T23:41:08.941Z,7.00
2018-03-15T23:43:37.319Z,7.00
2018-03-15T23:46:05.705Z,7.00
2018-03-15T23:48:33.400Z,7.00
2018-03-15T23:51:01.605Z,7.00
2018-03-15T23:53:29.375Z,7.00
2018-03-15T23:55:57.022Z,7.00
2018-03-15T23:58:25.480Z,7.00
